| time (UTC) | temp F | wind direction | speed MPH | gust MPH | rain 1hr in | rain 24hr in | rain mn in | humidity % | barometer mb |
| 20260509222514 | 57 | 62 | 10.0 | 15.0 | 0.00 | 0.00 | 0.00 | 92 | 1015.9 |
| 20260509222021 | 57 | 105 | 9.0 | 16.0 | 0.00 | 0.00 | 0.00 | 92 | 1016.0 |
| 20260509221022 | 57 | 103 | 9.0 | 18.0 | 0.00 | 0.00 | 0.00 | 92 | 1016.0 |
| 20260509220016 | 57 | 91 | 9.0 | 16.0 | 0.00 | 0.00 | 0.00 | 92 | 1015.9 |
| 20260509215516 | 57 | 63 | 10.0 | 15.0 | 0.00 | 0.00 | 0.00 | 92 | 1016.0 |
| 20260509215021 | 57 | 64 | 9.0 | 16.0 | 0.00 | 0.00 | 0.00 | 92 | 1016.1 |
| 20260509214515 | 57 | 35 | 9.0 | 17.0 | 0.00 | 0.00 | 0.00 | 92 | 1016.2 |
| 20260509212515 | 57 | 131 | 9.0 | 15.0 | 0.00 | 0.00 | 0.00 | 92 | 1016.3 |
| 20260509211515 | 57 | 112 | 8.0 | 17.0 | 0.00 | 0.00 | 0.00 | 92 | 1016.2 |
| 20260509210014 | 57 | 61 | 7.0 | 13.0 | 0.00 | 0.00 | 0.00 | 92 | 1016.4 |
| 20260509203514 | 57 | 90 | 9.0 | 14.0 | 0.00 | 0.00 | 0.00 | 91 | 1016.4 |
| 20260509202516 | 57 | 122 | 6.0 | 12.0 | 0.00 | 0.00 | 0.00 | 90 | 1016.5 |
| 20260509202021 | 57 | 64 | 8.0 | 15.0 | 0.00 | 0.00 | 0.00 | 90 | 1016.5 |
| 20260509201515 | 58 | 73 | 6.0 | 14.0 | 0.00 | 0.00 | 0.00 | 89 | 1016.3 |
| 20260509195021 | 58 | 62 | 6.0 | 12.0 | 0.00 | 0.00 | 0.00 | 88 | 1016.7 |
| 20260509194022 | 58 | 104 | 6.0 | 12.0 | 0.00 | 0.00 | 0.00 | 88 | 1016.4 |
| 20260509192514 | 59 | 94 | 9.0 | 13.0 | 0.00 | 0.00 | 0.00 | 87 | 1016.0 |
| 20260509191515 | 59 | 48 | 6.0 | 12.0 | 0.00 | 0.00 | 0.00 | 87 | 1016.7 |
| 20260509191022 | 59 | 102 | 3.0 | 8.0 | 0.00 | 0.00 | 0.00 | 87 | 1017.0 |
| 20260509184514 | 59 | 52 | 6.0 | 12.0 | 0.00 | 0.00 | 0.00 | 88 | 1016.1 |
| 20260509184021 | 59 | 73 | 3.0 | 12.0 | 0.00 | 0.00 | 0.00 | 87 | 1016.3 |
| 20260509183515 | 59 | 127 | 7.0 | 12.0 | 0.00 | 0.00 | 0.00 | 87 | 1015.7 |
| 20260509181514 | 60 | 97 | 6.0 | 13.0 | 0.00 | 0.00 | 0.00 | 86 | 1015.8 |
| 20260509181022 | 60 | 78 | 6.0 | 12.0 | 0.00 | 0.00 | 0.00 | 85 | 1016.1 |
| 20260509180515 | 60 | 115 | 11.0 | 20.0 | 0.00 | 0.00 | 0.00 | 84 | 1016.2 |
| 20260509175023 | 61 | 52 | 6.0 | 12.0 | 0.00 | 0.00 | 0.00 | 82 | 1017.2 |
| 20260509174514 | 61 | 77 | 5.0 | 9.0 | 0.00 | 0.00 | 0.00 | 82 | 1017.3 |
| 20260509172023 | 62 | 135 | 5.0 | 10.0 | 0.00 | 0.00 | 0.00 | 81 | 1016.4 |
| 20260509171516 | 62 | 89 | 6.0 | 12.0 | 0.00 | 0.00 | 0.00 | 80 | 1016.5 |
| 20260509165022 | 63 | 84 | 6.0 | 13.0 | 0.00 | 0.00 | 0.00 | 78 | 1015.9 |
| 20260509163515 | 64 | 79 | 7.0 | 14.0 | 0.00 | 0.00 | 0.00 | 76 | 1016.0 |
| 20260509162514 | 65 | 67 | 6.0 | 13.0 | 0.00 | 0.00 | 0.00 | 74 | 1016.0 |
| 20260509162022 | 66 | 94 | 6.0 | 12.0 | 0.00 | 0.00 | 0.00 | 73 | 1016.0 |
| 20260509160514 | 67 | 91 | 6.0 | 10.0 | 0.00 | 0.00 | 0.00 | 72 | 1016.0 |
| 20260509160014 | 67 | 68 | 7.0 | 12.0 | 0.00 | 0.00 | 0.00 | 71 | 1016.1 |
| 20260509155514 | 68 | 60 | 7.0 | 13.0 | 0.00 | 0.00 | 0.00 | 71 | 1015.9 |
| 20260509154022 | 68 | 97 | 7.0 | 12.0 | 0.00 | 0.00 | 0.00 | 71 | 1015.6 |
| 20260509153516 | 68 | 103 | 6.0 | 13.0 | 0.00 | 0.00 | 0.00 | 70 | 1015.7 |
| 20260509153022 | 69 | 53 | 5.0 | 13.0 | 0.00 | 0.00 | 0.00 | 69 | 1015.7 |
| 20260509152022 | 70 | 39 | 6.0 | 10.0 | 0.00 | 0.00 | 0.00 | 67 | 1015.7 |
| 20260509151515 | 70 | 68 | 5.0 | 12.0 | 0.00 | 0.00 | 0.00 | 67 | 1015.8 |
| 20260509150514 | 70 | 88 | 5.0 | 12.0 | 0.00 | 0.00 | 0.00 | 66 | 1015.8 |
| 20260509150014 | 70 | 84 | 7.0 | 10.0 | 0.00 | 0.00 | 0.00 | 66 | 1015.8 |
| 20260509145515 | 71 | 70 | 5.0 | 9.0 | 0.00 | 0.00 | 0.00 | 65 | 1015.8 |
| 20260509145021 | 70 | 66 | 4.0 | 10.0 | 0.00 | 0.00 | 0.00 | 66 | 1015.8 |
| 20260509143515 | 71 | 79 | 6.0 | 12.0 | 0.00 | 0.00 | 0.00 | 65 | 1015.9 |
| 20260509142515 | 71 | 93 | 4.0 | 10.0 | 0.00 | 0.00 | 0.00 | 64 | 1015.8 |
| 20260509142022 | 71 | 59 | 7.0 | 12.0 | 0.00 | 0.00 | 0.00 | 64 | 1015.7 |
| 20260509141022 | 72 | 88 | 5.0 | 10.0 | 0.00 | 0.00 | 0.00 | 63 | 1015.8 |
| 20260509140515 | 72 | 64 | 5.0 | 10.0 | 0.00 | 0.00 | 0.00 | 63 | 1015.8 |
| 20260509135023 | 72 | 92 | 6.0 | 12.0 | 0.00 | 0.00 | 0.00 | 61 | 1015.7 |
| 20260509134514 | 72 | 59 | 5.0 | 12.0 | 0.00 | 0.00 | 0.00 | 63 | 1015.8 |
| 20260509134021 | 72 | 64 | 7.0 | 12.0 | 0.00 | 0.00 | 0.00 | 63 | 1015.8 |
| 20260509132021 | 72 | 125 | 8.0 | 13.0 | 0.00 | 0.00 | 0.00 | 62 | 1015.9 |
| 20260509125514 | 73 | 100 | 5.0 | 9.0 | 0.00 | 0.00 | 0.00 | 62 | 1016.0 |
| 20260509125022 | 73 | 74 | 7.0 | 10.0 | 0.00 | 0.00 | 0.00 | 61 | 1016.1 |
| 20260509124515 | 72 | 55 | 5.0 | 13.0 | 0.00 | 0.00 | 0.00 | 61 | 1016.1 |
| 20260509124022 | 72 | 99 | 5.0 | 12.0 | 0.00 | 0.00 | 0.00 | 63 | 1016.1 |
| 20260509122022 | 72 | 118 | 6.0 | 9.0 | 0.00 | 0.00 | 0.00 | 63 | 1016.2 |
| 20260509120514 | 72 | 83 | 3.0 | 10.0 | 0.00 | 0.00 | 0.00 | 63 | 1016.1 |
| 20260509120014 | 71 | 104 | 4.0 | 10.0 | 0.00 | 0.00 | 0.00 | 64 | 1016.1 |
| 20260509115514 | 72 | 82 | 7.0 | 12.0 | 0.00 | 0.00 | 0.00 | 63 | 1016.2 |
| 20260509115023 | 72 | 86 | 4.0 | 12.0 | 0.00 | 0.00 | 0.00 | 63 | 1016.2 |
| 20260509113022 | 72 | 91 | 3.0 | 8.0 | 0.00 | 0.00 | 0.00 | 62 | 1016.4 |
| 20260509112514 | 71 | 91 | 4.0 | 9.0 | 0.00 | 0.00 | 0.00 | 63 | 1016.5 |
| 20260509111514 | 71 | 140 | 3.0 | 6.0 | 0.00 | 0.00 | 0.00 | 62 | 1016.3 |
| 20260509111021 | 71 | 87 | 6.0 | 10.0 | 0.00 | 0.00 | 0.00 | 60 | 1016.3 |
| 20260509110016 | 72 | 51 | 4.0 | 12.0 | 0.00 | 0.00 | 0.00 | 60 | 1016.3 |
| 20260509104023 | 71 | 82 | 5.0 | 10.0 | 0.00 | 0.00 | 0.00 | 61 | 1016.4 |
| 20260509102514 | 70 | 86 | 2.0 | 8.0 | 0.00 | 0.00 | 0.00 | 62 | 1016.5 |
| 20260509101514 | 69 | 118 | 5.0 | 12.0 | 0.00 | 0.00 | 0.00 | 62 | 1016.5 |
| 20260509100514 | 70 | 11 | 6.0 | 10.0 | 0.00 | 0.00 | 0.00 | 63 | 1016.5 |
| 20260509095514 | 69 | 9 | 5.0 | 9.0 | 0.00 | 0.00 | 0.00 | 62 | 1016.4 |
| 20260509094021 | 69 | 55 | 6.0 | 12.0 | 0.00 | 0.00 | 0.00 | 67 | 1016.3 |
| 20260509092514 | 69 | 118 | 4.0 | 8.0 | 0.00 | 0.00 | 0.00 | 67 | 1016.3 |
| 20260509092021 | 68 | 99 | 5.0 | 10.0 | 0.00 | 0.00 | 0.00 | 68 | 1016.4 |
| 20260509090514 | 68 | 61 | 6.0 | 9.0 | 0.00 | 0.00 | 0.00 | 68 | 1016.2 |
| 20260509085514 | 67 | 9 | 3.0 | 9.0 | 0.00 | 0.00 | 0.00 | 71 | 1016.2 |
| 20260509085022 | 67 | 43 | 3.0 | 9.0 | 0.00 | 0.00 | 0.00 | 70 | 1016.2 |
| 20260509084514 | 67 | 106 | 3.0 | 10.0 | 0.00 | 0.00 | 0.00 | 70 | 1016.2 |
| 20260509084023 | 67 | 106 | 3.0 | 9.0 | 0.00 | 0.00 | 0.00 | 71 | 1016.2 |
| 20260509083514 | 66 | 106 | 5.0 | 12.0 | 0.00 | 0.00 | 0.00 | 72 | 1016.2 |
| 20260509082022 | 65 | 106 | 4.0 | 10.0 | 0.00 | 0.00 | 0.00 | 73 | 1016.2 |
| 20260509081514 | 65 | 60 | 5.0 | 12.0 | 0.00 | 0.00 | 0.00 | 72 | 1016.1 |
| 20260509080515 | 65 | 87 | 5.0 | 9.0 | 0.00 | 0.00 | 0.00 | 72 | 1016.1 |
| 20260509080014 | 65 | 94 | 6.0 | 9.0 | 0.00 | 0.00 | 0.00 | 73 | 1016.1 |
| 20260509074022 | 64 | 115 | 5.0 | 12.0 | 0.00 | 0.00 | 0.00 | 72 | 1016.0 |
| 20260509073514 | 64 | 61 | 5.0 | 10.0 | 0.00 | 0.00 | 0.00 | 72 | 1016.0 |
| 20260509073022 | 64 | 119 | 5.0 | 9.0 | 0.00 | 0.00 | 0.00 | 72 | 1015.9 |
| 20260509072514 | 64 | 95 | 3.0 | 8.0 | 0.00 | 0.00 | 0.00 | 72 | 1015.9 |
| 20260509071514 | 63 | 105 | 5.0 | 10.0 | 0.00 | 0.00 | 0.00 | 75 | 1015.9 |
| 20260509071022 | 63 | 108 | 6.0 | 10.0 | 0.00 | 0.00 | 0.00 | 74 | 1015.8 |
| 20260509065513 | 62 | 112 | 3.0 | 8.0 | 0.00 | 0.00 | 0.00 | 79 | 1015.9 |
| 20260509065022 | 62 | 166 | 4.0 | 9.0 | 0.00 | 0.00 | 0.00 | 77 | 1015.9 |
| 20260509063021 | 62 | 128 | 2.0 | 7.0 | 0.00 | 0.00 | 0.00 | 80 | 1015.6 |
| 20260509062021 | 61 | 174 | 4.0 | 6.0 | 0.00 | 0.00 | 0.00 | 81 | 1015.7 |
| 20260509061514 | 61 | 147 | 2.0 | 6.0 | 0.00 | 0.00 | 0.00 | 81 | 1015.7 |
| 20260509061021 | 61 | 87 | 3.0 | 7.0 | 0.00 | 0.00 | 0.00 | 81 | 1015.5 |
| 20260509060014 | 61 | 91 | 1.0 | 3.0 | 0.00 | 0.00 | 0.00 | 81 | 1015.6 |
| 20260509055513 | 61 | 107 | 1.0 | 3.0 | 0.00 | 0.00 | 0.00 | 81 | 1015.7 |
| 20260509054023 | 61 | 158 | 0.0 | 1.0 | 0.00 | 0.00 | 0.00 | 80 | 1015.6 |
| 20260509053021 | 60 | 189 | 2.0 | 3.0 | 0.00 | 0.00 | 0.00 | 83 | 1015.7 |
| 20260509052513 | 60 | 185 | 0.0 | 2.0 | 0.00 | 0.00 | 0.00 | 83 | 1015.7 |
| 20260509050014 | 59 | 151 | 1.0 | 2.0 | 0.00 | 0.00 | 0.00 | 84 | 1015.4 |
| 20260509044514 | 58 | 102 | 2.0 | 3.0 | 0.00 | 0.00 | 0.00 | 85 | 1015.4 |
| 20260509042021 | 55 | 39 | 1.0 | 2.0 | 0.00 | 0.00 | 0.00 | 87 | 1015.1 |
| 20260509041514 | 55 | 39 | 0.0 | 1.0 | 0.00 | 0.00 | 0.00 | 88 | 1015.0 |
| 20260509041021 | 55 | 37 | 1.0 | 2.0 | 0.00 | 0.00 | 0.00 | 88 | 1015.0 |
| 20260509040015 | 55 | 17 | 2.0 | 3.0 | 0.00 | 0.00 | 0.00 | 89 | 1014.9 |
| 20260509033513 | 55 | 359 | 1.0 | 2.0 | 0.00 | 0.00 | 0.00 | 88 | 1014.9 |
| 20260509033023 | 55 | 359 | 0.0 | 1.0 | 0.00 | 0.00 | 0.00 | 88 | 1014.9 |
| 20260509032020 | 55 | 335 | 1.0 | 2.0 | 0.00 | 0.00 | 0.00 | 88 | 1014.8 |
| 20260509031515 | 55 | 318 | 1.0 | 3.0 | 0.00 | 0.00 | 0.00 | 88 | 1014.7 |
| 20260509030513 | 55 | 359 | 1.0 | 2.0 | 0.00 | 0.00 | 0.00 | 87 | 1014.7 |
| 20260509030013 | 55 | 314 | 2.0 | 3.0 | 0.00 | 0.00 | 0.00 | 87 | 1014.7 |
| 20260509025513 | 55 | 359 | 2.0 | 3.0 | 0.00 | 0.00 | 0.00 | 88 | 1014.7 |
| 20260509025020 | 55 | 359 | 1.0 | 3.0 | 0.00 | 0.00 | 0.00 | 88 | 1014.7 |
| 20260509024513 | 55 | 289 | 1.0 | 2.0 | 0.00 | 0.00 | 0.00 | 88 | 1014.6 |
| 20260509022020 | 55 | 359 | 0.0 | 2.0 | 0.00 | 0.00 | 0.00 | 87 | 1014.6 |
| 20260509021513 | 55 | 359 | 1.0 | 2.0 | 0.00 | 0.00 | 0.00 | 87 | 1014.6 |
| 20260509021020 | 56 | 287 | 1.0 | 2.0 | 0.00 | 0.00 | 0.00 | 86 | 1014.6 |
| 20260509020514 | 56 | 359 | 1.0 | 1.0 | 0.00 | 0.00 | 0.00 | 86 | 1014.7 |
| 20260509015513 | 56 | 359 | 1.0 | 1.0 | 0.00 | 0.00 | 0.00 | 87 | 1014.7 |
| 20260509014020 | 56 | 322 | 1.0 | 2.0 | 0.00 | 0.00 | 0.00 | 86 | 1014.6 |
| 20260509013020 | 56 | 359 | 1.0 | 2.0 | 0.00 | 0.00 | 0.00 | 87 | 1014.5 |
| 20260509012513 | 56 | 287 | 0.0 | 1.0 | 0.00 | 0.00 | 0.00 | 87 | 1014.5 |
| 20260509011020 | 57 | 359 | 0.0 | 1.0 | 0.00 | 0.00 | 0.00 | 87 | 1014.5 |
| 20260509010513 | 57 | 359 | 0.0 | 0.0 | 0.00 | 0.00 | 0.00 | 87 | 1014.5 |
| 20260509010013 | 56 | 359 | 0.0 | 0.0 | 0.00 | 0.00 | 0.00 | 87 | 1014.5 |
| 20260509004019 | 56 | 359 | 0.0 | 1.0 | 0.00 | 0.00 | 0.00 | 87 | 1014.6 |
| 20260509003019 | 56 | 287 | 0.0 | 1.0 | 0.00 | 0.00 | 0.00 | 87 | 1014.6 |
| 20260509002514 | 56 | 288 | 0.0 | 1.0 | 0.00 | 0.00 | 0.00 | 86 | 1014.7 |
| 20260509001513 | 57 | 287 | 1.0 | 2.0 | 0.00 | 0.00 | 0.00 | 86 | 1014.7 |
| 20260509001019 | 57 | 289 | 0.0 | 1.0 | 0.00 | 0.00 | 0.00 | 87 | 1014.8 |
| 20260508235513 | 56 | 287 | 0.0 | 1.0 | 0.00 | 0.00 | 0.00 | 86 | 1014.8 |
| 20260508235020 | 56 | 287 | 0.0 | 1.0 | 0.00 | 0.00 | 0.00 | 86 | 1014.8 |
| 20260508234020 | 57 | 359 | 0.0 | 1.0 | 0.00 | 0.00 | 0.00 | 85 | 1014.8 |
| 20260508233020 | 58 | 359 | 1.0 | 1.0 | 0.00 | 0.00 | 0.00 | 83 | 1014.7 |
| 20260508232513 | 58 | 359 | 0.0 | 1.0 | 0.00 | 0.00 | 0.00 | 84 | 1014.8 |
| 20260508232019 | 58 | 287 | 0.0 | 0.0 | 0.00 | 0.00 | 0.00 | 85 | 1014.8 |
| 20260508231513 | 57 | 287 | 0.0 | 1.0 | 0.00 | 0.00 | 0.00 | 86 | 1014.8 |
| 20260508231019 | 57 | 287 | 0.0 | 1.0 | 0.00 | 0.00 | 0.00 | 86 | 1014.8 |
| 20260508230513 | 57 | 289 | 0.0 | 1.0 | 0.00 | 0.00 | 0.00 | 85 | 1014.8 |
| 20260508225019 | 57 | 286 | 1.0 | 2.0 | 0.00 | 0.00 | 0.00 | 83 | 1014.8 |
| 20260508224019 | 58 | 287 | 1.0 | 2.0 | 0.00 | 0.00 | 0.00 | 84 | 1014.8 |
| 20260508223513 | 58 | 289 | 1.0 | 2.0 | 0.00 | 0.00 | 0.00 | 84 | 1014.8 |